sensor_id;sensor_type;location;lat;lon;timestamp;pressure;altitude;pressure_sealevel;temperature;humidity
14902;BME280;7542;49.078;9.194;2022-09-21T00:00:30;99459.63;;;15.53;50.06
14902;BME280;7542;49.078;9.194;2022-09-21T00:01:32;99453.34;;;15.54;49.83
14902;BME280;7542;49.078;9.194;2022-09-21T00:02:34;99457.16;;;15.51;49.37
14902;BME280;7542;49.078;9.194;2022-09-21T00:03:36;99451.03;;;15.51;49.84
14902;BME280;7542;49.078;9.194;2022-09-21T00:04:38;99448.59;;;15.49;49.40
14902;BME280;7542;49.078;9.194;2022-09-21T00:05:40;99451.41;;;15.48;50.16
14902;BME280;7542;49.078;9.194;2022-09-21T00:06:42;99450.59;;;15.47;49.48
14902;BME280;7542;49.078;9.194;2022-09-21T00:07:44;99461.34;;;15.46;50.34
14902;BME280;7542;49.078;9.194;2022-09-21T00:08:47;99451.59;;;15.46;50.03
14902;BME280;7542;49.078;9.194;2022-09-21T00:09:49;99453.41;;;15.46;49.80
14902;BME280;7542;49.078;9.194;2022-09-21T00:10:50;99459.72;;;15.45;50.17
14902;BME280;7542;49.078;9.194;2022-09-21T00:11:52;99456.25;;;15.44;50.07
14902;BME280;7542;49.078;9.194;2022-09-21T00:12:59;99459.88;;;15.43;49.66
14902;BME280;7542;49.078;9.194;2022-09-21T00:14:09;99459.88;;;15.43;50.11
14902;BME280;7542;49.078;9.194;2022-09-21T00:15:11;99461.88;;;15.41;50.01
14902;BME280;7542;49.078;9.194;2022-09-21T00:16:14;99465.69;;;15.38;49.83
14902;BME280;7542;49.078;9.194;2022-09-21T00:17:17;99462.88;;;15.40;49.74
14902;BME280;7542;49.078;9.194;2022-09-21T00:18:19;99460.41;;;15.38;49.72
14902;BME280;7542;49.078;9.194;2022-09-21T00:19:21;99470.34;;;15.36;50.12
14902;BME280;7542;49.078;9.194;2022-09-21T00:20:25;99468.53;;;15.37;49.35
14902;BME280;7542;49.078;9.194;2022-09-21T00:21:27;99462.59;;;15.35;50.07
14902;BME280;7542;49.078;9.194;2022-09-21T00:22:29;99470.88;;;15.32;49.62
14902;BME280;7542;49.078;9.194;2022-09-21T00:23:34;99466.59;;;15.31;49.40
14902;BME280;7542;49.078;9.194;2022-09-21T00:24:36;99466.13;;;15.27;50.19
14902;BME280;7542;49.078;9.194;2022-09-21T00:25:38;99464.47;;;15.26;49.98
14902;BME280;7542;49.078;9.194;2022-09-21T00:26:40;99470.94;;;15.24;50.36
14902;BME280;7542;49.078;9.194;2022-09-21T00:27:42;99464.38;;;15.20;50.24
14902;BME280;7542;49.078;9.194;2022-09-21T00:28:44;99469.50;;;15.21;49.54
14902;BME280;7542;49.078;9.194;2022-09-21T00:29:46;99465.53;;;15.17;49.74
14902;BME280;7542;49.078;9.194;2022-09-21T00:30:49;99461.44;;;15.15;49.81
14902;BME280;7542;49.078;9.194;2022-09-21T00:31:52;99467.91;;;15.12;50.34
14902;BME280;7542;49.078;9.194;2022-09-21T00:32:54;99471.38;;;15.13;50.15
14902;BME280;7542;49.078;9.194;2022-09-21T00:33:57;99469.53;;;15.13;50.10
14902;BME280;7542;49.078;9.194;2022-09-21T00:35:01;99471.56;;;15.11;49.96
14902;BME280;7542;49.078;9.194;2022-09-21T00:36:09;99466.28;;;15.11;50.17
14902;BME280;7542;49.078;9.194;2022-09-21T00:37:12;99464.63;;;15.10;50.68
14902;BME280;7542;49.078;9.194;2022-09-21T00:38:14;99477.97;;;15.08;49.84
14902;BME280;7542;49.078;9.194;2022-09-21T00:39:16;99468.41;;;15.07;50.13
14902;BME280;7542;49.078;9.194;2022-09-21T00:40:17;99467.78;;;15.05;50.36
14902;BME280;7542;49.078;9.194;2022-09-21T00:41:20;99468.78;;;15.04;50.19
14902;BME280;7542;49.078;9.194;2022-09-21T00:42:26;99473.25;;;15.04;50.59
14902;BME280;7542;49.078;9.194;2022-09-21T00:43:28;99469.97;;;15.02;50.83
14902;BME280;7542;49.078;9.194;2022-09-21T00:44:33;99467.31;;;15.02;50.24
14902;BME280;7542;49.078;9.194;2022-09-21T00:45:36;99465.50;;;15.02;50.57
14902;BME280;7542;49.078;9.194;2022-09-21T00:46:39;99468.50;;;14.99;50.57
14902;BME280;7542;49.078;9.194;2022-09-21T00:47:43;99468.50;;;14.99;50.55
14902;BME280;7542;49.078;9.194;2022-09-21T00:48:46;99471.31;;;14.98;50.71
14902;BME280;7542;49.078;9.194;2022-09-21T00:49:52;99469.31;;;15.00;50.80
14902;BME280;7542;49.078;9.194;2022-09-21T00:51:02;99463.41;;;14.98;50.48
14902;BME280;7542;49.078;9.194;2022-09-21T00:52:07;99458.63;;;14.93;50.50
14902;BME280;7542;49.078;9.194;2022-09-21T00:53:12;99471.84;;;14.93;50.95
14902;BME280;7542;49.078;9.194;2022-09-21T00:54:23;99468.38;;;14.93;50.43
14902;BME280;7542;49.078;9.194;2022-09-21T00:55:36;99468.38;;;14.93;50.46
14902;BME280;7542;49.078;9.194;2022-09-21T00:56:43;99466.09;;;14.90;51.03
14902;BME280;7542;49.078;9.194;2022-09-21T00:57:51;99462.63;;;14.89;50.44
14902;BME280;7542;49.078;9.194;2022-09-21T00:58:55;99467.09;;;14.89;50.82
14902;BME280;7542;49.078;9.194;2022-09-21T01:00:04;99465.44;;;14.88;50.47
14902;BME280;7542;49.078;9.194;2022-09-21T01:01:08;99466.41;;;14.87;50.54
14902;BME280;7542;49.078;9.194;2022-09-21T01:02:11;99459.50;;;14.86;50.97
14902;BME280;7542;49.078;9.194;2022-09-21T01:03:13;99468.25;;;14.86;50.22
14902;BME280;7542;49.078;9.194;2022-09-21T01:04:15;99460.31;;;14.86;50.80
14902;BME280;7542;49.078;9.194;2022-09-21T01:05:19;99465.13;;;14.83;50.65
14902;BME280;7542;49.078;9.194;2022-09-21T01:06:21;99464.50;;;14.81;51.18
14902;BME280;7542;49.078;9.194;2022-09-21T01:07:28;99462.22;;;14.77;51.16
14902;BME280;7542;49.078;9.194;2022-09-21T01:08:33;99462.53;;;14.74;50.60
14902;BME280;7542;49.078;9.194;2022-09-21T01:09:35;99465.38;;;14.73;51.17
14902;BME280;7542;49.078;9.194;2022-09-21T01:10:59;99460.09;;;14.73;51.18
14902;BME280;7542;49.078;9.194;2022-09-21T01:15:36;99463.75;;;14.64;51.11
14902;BME280;7542;49.078;9.194;2022-09-21T01:25:40;99465.16;;;14.43;50.57
14902;BME280;7542;49.078;9.194;2022-09-21T01:30:16;99463.06;;;14.39;51.01
14902;BME280;7542;49.078;9.194;2022-09-21T01:31:34;99465.69;;;14.39;50.96
14902;BME280;7542;49.078;9.194;2022-09-21T01:32:41;99464.06;;;14.38;51.31
14902;BME280;7542;49.078;9.194;2022-09-21T01:33:51;99461.22;;;14.39;51.03
14902;BME280;7542;49.078;9.194;2022-09-21T01:36:27;99467.69;;;14.37;51.03
14902;BME280;7542;49.078;9.194;2022-09-21T01:39:12;99464.41;;;14.35;51.31
14902;BME280;7542;49.078;9.194;2022-09-21T01:40:21;99466.41;;;14.33;50.89
14902;BME280;7542;49.078;9.194;2022-09-21T01:41:29;99468.84;;;14.34;50.94
14902;BME280;7542;49.078;9.194;2022-09-21T01:42:34;99467.03;;;14.35;51.30
14902;BME280;7542;49.078;9.194;2022-09-21T01:43:45;99471.16;;;14.37;51.14
14902;BME280;7542;49.078;9.194;2022-09-21T01:44:49;99467.69;;;14.37;51.40
14902;BME280;7542;49.078;9.194;2022-09-21T01:45:54;99468.31;;;14.39;51.27
14902;BME280;7542;49.078;9.194;2022-09-21T01:47:01;99467.69;;;14.37;51.09
14902;BME280;7542;49.078;9.194;2022-09-21T01:48:04;99471.97;;;14.38;51.42
14902;BME280;7542;49.078;9.194;2022-09-21T01:49:17;99473.25;;;14.42;51.11
14902;BME280;7542;49.078;9.194;2022-09-21T01:50:23;99472.44;;;14.41;51.20
14902;BME280;7542;49.078;9.194;2022-09-21T01:51:27;99466.34;;;14.41;51.26
14902;BME280;7542;49.078;9.194;2022-09-21T01:52:48;99472.97;;;14.45;51.21
14902;BME280;7542;49.078;9.194;2022-09-21T01:54:04;99471.16;;;14.45;51.02
14902;BME280;7542;49.078;9.194;2022-09-21T01:55:27;99471.78;;;14.47;51.35
14902;BME280;7542;49.078;9.194;2022-09-21T01:56:41;99476.25;;;14.47;51.05
14902;BME280;7542;49.078;9.194;2022-09-21T01:58:05;99469.97;;;14.48;50.95
14902;BME280;7542;49.078;9.194;2022-09-21T02:00:26;99463.22;;;14.45;51.00
14902;BME280;7542;49.078;9.194;2022-09-21T02:01:31;99460.06;;;14.42;50.88
14902;BME280;7542;49.078;9.194;2022-09-21T02:02:53;99463.53;;;14.42;51.07
14902;BME280;7542;49.078;9.194;2022-09-21T02:04:07;99466.16;;;14.42;51.21
14902;BME280;7542;49.078;9.194;2022-09-21T02:05:11;99468.31;;;14.39;50.86
14902;BME280;7542;49.078;9.194;2022-09-21T02:06:15;99468.50;;;14.37;50.67
14902;BME280;7542;49.078;9.194;2022-09-21T02:07:18;99473.97;;;14.36;50.68
14902;BME280;7542;49.078;9.194;2022-09-21T02:08:20;99469.03;;;14.33;50.89
14902;BME280;7542;49.078;9.194;2022-09-21T02:09:23;99470.69;;;14.34;51.05
14902;BME280;7542;49.078;9.194;2022-09-21T02:10:33;99472.31;;;14.35;51.42
14902;BME280;7542;49.078;9.194;2022-09-21T02:11:36;99468.19;;;14.32;50.97
14902;BME280;7542;49.078;9.194;2022-09-21T02:12:43;99468.34;;;14.31;50.93
14902;BME280;7542;49.078;9.194;2022-09-21T02:13:51;99466.41;;;14.33;51.20
14902;BME280;7542;49.078;9.194;2022-09-21T02:14:54;99461.25;;;14.31;50.96
14902;BME280;7542;49.078;9.194;2022-09-21T02:19:08;99466.72;;;14.30;51.16
14902;BME280;7542;49.078;9.194;2022-09-21T02:20:31;99463.63;;;14.26;51.17
14902;BME280;7542;49.078;9.194;2022-09-21T02:24:45;99464.47;;;14.18;51.15
14902;BME280;7542;49.078;9.194;2022-09-21T02:25:52;99462.53;;;14.12;51.46
14902;BME280;7542;49.078;9.194;2022-09-21T02:28:36;99458.38;;;14.10;50.96
14902;BME280;7542;49.078;9.194;2022-09-21T02:34:19;99462.91;;;14.01;51.25
14902;BME280;7542;49.078;9.194;2022-09-21T02:37:22;99464.03;;;13.99;51.49
14902;BME280;7542;49.078;9.194;2022-09-21T02:38:40;99459.94;;;13.96;51.43
14902;BME280;7542;49.078;9.194;2022-09-21T02:40:22;99462.91;;;13.93;51.22
14902;BME280;7542;49.078;9.194;2022-09-21T02:41:33;99462.44;;;13.89;51.48
14902;BME280;7542;49.078;9.194;2022-09-21T02:42:42;99464.56;;;13.86;51.22
14902;BME280;7542;49.078;9.194;2022-09-21T02:44:16;99461.28;;;13.84;51.60
14902;BME280;7542;49.078;9.194;2022-09-21T02:45:34;99470.34;;;13.81;51.44
14902;BME280;7542;49.078;9.194;2022-09-21T02:46:57;99465.25;;;13.80;51.18
14902;BME280;7542;49.078;9.194;2022-09-21T02:48:15;99466.25;;;13.79;51.61
14902;BME280;7542;49.078;9.194;2022-09-21T02:49:28;99464.75;;;13.76;51.03
14902;BME280;7542;49.078;9.194;2022-09-21T02:50:41;99472.00;;;13.74;51.63
14902;BME280;7542;49.078;9.194;2022-09-21T02:51:49;99471.19;;;13.74;51.21
14902;BME280;7542;49.078;9.194;2022-09-21T02:52:53;99474.00;;;13.72;51.63
14902;BME280;7542;49.078;9.194;2022-09-21T02:53:57;99469.72;;;13.71;51.84
14902;BME280;7542;49.078;9.194;2022-09-21T02:55:02;99476.81;;;13.71;51.45
14902;BME280;7542;49.078;9.194;2022-09-21T02:56:06;99477.81;;;13.70;51.73
14902;BME280;7542;49.078;9.194;2022-09-21T02:57:10;99476.16;;;13.69;51.63
14902;BME280;7542;49.078;9.194;2022-09-21T02:58:14;99476.31;;;13.67;51.34
14902;BME280;7542;49.078;9.194;2022-09-21T02:59:17;99470.22;;;13.67;51.46
14902;BME280;7542;49.078;9.194;2022-09-21T03:00:19;99472.03;;;13.66;51.58
14902;BME280;7542;49.078;9.194;2022-09-21T03:01:21;99468.41;;;13.67;51.24
14902;BME280;7542;49.078;9.194;2022-09-21T03:02:40;99469.06;;;13.69;51.37
14902;BME280;7542;49.078;9.194;2022-09-21T03:03:42;99474.00;;;13.64;51.46
14902;BME280;7542;49.078;9.194;2022-09-21T03:04:46;99467.75;;;13.65;51.17
14902;BME280;7542;49.078;9.194;2022-09-21T03:05:52;99473.84;;;13.66;51.36
14902;BME280;7542;49.078;9.194;2022-09-21T03:06:54;99473.00;;;13.65;51.16
14902;BME280;7542;49.078;9.194;2022-09-21T03:07:57;99468.09;;;13.62;51.30
14902;BME280;7542;49.078;9.194;2022-09-21T03:08:59;99470.56;;;13.63;51.43
14902;BME280;7542;49.078;9.194;2022-09-21T03:10:02;99465.28;;;13.63;51.42
14902;BME280;7542;49.078;9.194;2022-09-21T03:11:04;99466.09;;;13.64;51.39
14902;BME280;7542;49.078;9.194;2022-09-21T03:12:06;99468.75;;;13.64;51.55
14902;BME280;7542;49.078;9.194;2022-09-21T03:13:09;99462.66;;;13.63;51.31
14902;BME280;7542;49.078;9.194;2022-09-21T03:14:11;99471.38;;;13.64;51.58
14902;BME280;7542;49.078;9.194;2022-09-21T03:15:13;99468.75;;;13.64;51.44
14902;BME280;7542;49.078;9.194;2022-09-21T03:16:18;99477.47;;;13.64;51.57
14902;BME280;7542;49.078;9.194;2022-09-21T03:17:21;99474.81;;;13.64;51.34
14902;BME280;7542;49.078;9.194;2022-09-21T03:18:22;99475.47;;;13.67;51.40
14902;BME280;7542;49.078;9.194;2022-09-21T03:19:24;99481.56;;;13.67;51.78
14902;BME280;7542;49.078;9.194;2022-09-21T03:20:26;99467.56;;;13.67;51.42
14902;BME280;7542;49.078;9.194;2022-09-21T03:21:27;99479.63;;;13.69;51.32
14902;BME280;7542;49.078;9.194;2022-09-21T03:22:30;99480.44;;;13.70;51.52
14902;BME280;7542;49.078;9.194;2022-09-21T03:23:31;99474.34;;;13.69;51.53
14902;BME280;7542;49.078;9.194;2022-09-21T03:24:33;99471.03;;;13.67;51.77
14902;BME280;7542;49.078;9.194;2022-09-21T03:25:49;99479.78;;;13.68;51.34
14902;BME280;7542;49.078;9.194;2022-09-21T03:26:52;99476.31;;;13.67;51.89
14902;BME280;7542;49.078;9.194;2022-09-21T03:27:55;99478.13;;;13.67;51.45
14902;BME280;7542;49.078;9.194;2022-09-21T03:28:57;99482.06;;;13.71;51.73
14902;BME280;7542;49.078;9.194;2022-09-21T03:29:59;99486.34;;;13.72;51.64
14902;BME280;7542;49.078;9.194;2022-09-21T03:31:03;99485.53;;;13.71;51.48
14902;BME280;7542;49.078;9.194;2022-09-21T03:32:07;99483.72;;;13.72;51.44
14902;BME280;7542;49.078;9.194;2022-09-21T03:33:09;99487.00;;;13.74;51.65
14902;BME280;7542;49.078;9.194;2022-09-21T03:34:11;99491.28;;;13.75;51.53
14902;BME280;7542;49.078;9.194;2022-09-21T03:35:13;99480.91;;;13.73;51.33
14902;BME280;7542;49.078;9.194;2022-09-21T03:36:15;99478.09;;;13.75;51.52
14902;BME280;7542;49.078;9.194;2022-09-21T03:37:17;99476.28;;;13.75;51.08
14902;BME280;7542;49.078;9.194;2022-09-21T03:38:19;99480.75;;;13.75;51.17
14902;BME280;7542;49.078;9.194;2022-09-21T03:39:22;99483.53;;;13.73;51.59
14902;BME280;7542;49.078;9.194;2022-09-21T03:40:23;99486.34;;;13.72;51.42
14902;BME280;7542;49.078;9.194;2022-09-21T03:41:27;99484.53;;;13.72;51.58
14902;BME280;7542;49.078;9.194;2022-09-21T03:42:29;99489.63;;;13.74;51.49
14902;BME280;7542;49.078;9.194;2022-09-21T03:43:31;99488.00;;;13.73;51.43
14902;BME280;7542;49.078;9.194;2022-09-21T03:44:33;99490.63;;;13.73;51.79
14902;BME280;7542;49.078;9.194;2022-09-21T03:45:35;99491.63;;;13.72;51.65
14902;BME280;7542;49.078;9.194;2022-09-21T03:46:38;99484.72;;;13.71;52.02
14902;BME280;7542;49.078;9.194;2022-09-21T03:47:40;99483.88;;;13.70;51.59
14902;BME280;7542;49.078;9.194;2022-09-21T03:48:42;99477.81;;;13.70;51.93
14902;BME280;7542;49.078;9.194;2022-09-21T03:49:47;99484.72;;;13.71;51.65
14902;BME280;7542;49.078;9.194;2022-09-21T03:50:50;99483.72;;;13.72;51.57
14902;BME280;7542;49.078;9.194;2022-09-21T03:51:51;99489.16;;;13.70;51.65
14902;BME280;7542;49.078;9.194;2022-09-21T03:52:54;99486.53;;;13.70;51.72
14902;BME280;7542;49.078;9.194;2022-09-21T03:53:57;99488.16;;;13.71;51.80
14902;BME280;7542;49.078;9.194;2022-09-21T03:54:58;99486.34;;;13.72;51.63
14902;BME280;7542;49.078;9.194;2022-09-21T03:56:00;99480.09;;;13.73;51.82
14902;BME280;7542;49.078;9.194;2022-09-21T03:57:02;99483.72;;;13.72;51.68
14902;BME280;7542;49.078;9.194;2022-09-21T03:58:05;99484.88;;;13.69;51.91
14902;BME280;7542;49.078;9.194;2022-09-21T03:59:07;99480.44;;;13.70;51.71
14902;BME280;7542;49.078;9.194;2022-09-21T04:00:15;99489.16;;;13.70;51.84
14902;BME280;7542;49.078;9.194;2022-09-21T04:01:17;99484.06;;;13.69;51.69
14902;BME280;7542;49.078;9.194;2022-09-21T04:02:19;99484.53;;;13.64;51.90
14902;BME280;7542;49.078;9.194;2022-09-21T04:03:20;99487.19;;;13.64;52.01
14902;BME280;7542;49.078;9.194;2022-09-21T04:04:22;99486.53;;;13.62;51.78
14902;BME280;7542;49.078;9.194;2022-09-21T04:05:24;99487.53;;;13.61;51.75
14902;BME280;7542;49.078;9.194;2022-09-21T04:06:26;99492.31;;;13.57;51.77
14902;BME280;7542;49.078;9.194;2022-09-21T04:07:32;99480.09;;;13.56;51.93
14902;BME280;7542;49.078;9.194;2022-09-21T04:08:35;99487.34;;;13.54;51.54
14902;BME280;7542;49.078;9.194;2022-09-21T04:09:36;99499.88;;;13.52;51.98
14902;BME280;7542;49.078;9.194;2022-09-21T04:10:38;99487.88;;;13.50;51.49
14902;BME280;7542;49.078;9.194;2022-09-21T04:11:45;99491.50;;;13.49;51.81
14902;BME280;7542;49.078;9.194;2022-09-21T04:12:47;99486.53;;;13.46;52.07
14902;BME280;7542;49.078;9.194;2022-09-21T04:13:50;99488.34;;;13.45;51.97
14902;BME280;7542;49.078;9.194;2022-09-21T04:14:57;99492.97;;;13.43;51.70
14902;BME280;7542;49.078;9.194;2022-09-21T04:15:59;99492.31;;;13.41;51.96
14902;BME280;7542;49.078;9.194;2022-09-21T04:17:00;99487.88;;;13.42;52.05
14902;BME280;7542;49.078;9.194;2022-09-21T04:18:02;99493.13;;;13.42;51.62
14902;BME280;7542;49.078;9.194;2022-09-21T04:19:04;99491.50;;;13.41;51.94
14902;BME280;7542;49.078;9.194;2022-09-21T04:20:08;99491.31;;;13.42;52.15
14902;BME280;7542;49.078;9.194;2022-09-21T04:21:10;99501.03;;;13.42;51.79
14902;BME280;7542;49.078;9.194;2022-09-21T04:22:11;99492.16;;;13.43;52.19
14902;BME280;7542;49.078;9.194;2022-09-21T04:23:14;99496.75;;;13.41;51.84
14902;BME280;7542;49.078;9.194;2022-09-21T04:24:17;99495.94;;;13.40;51.94
14902;BME280;7542;49.078;9.194;2022-09-21T04:25:19;99499.38;;;13.41;51.98
14902;BME280;7542;49.078;9.194;2022-09-21T04:26:28;99501.22;;;13.40;51.96
14902;BME280;7542;49.078;9.194;2022-09-21T04:27:32;99498.91;;;13.37;52.29
14902;BME280;7542;49.078;9.194;2022-09-21T04:28:34;99493.00;;;13.35;52.18
14902;BME280;7542;49.078;9.194;2022-09-21T04:29:36;99501.03;;;13.33;52.34
14902;BME280;7542;49.078;9.194;2022-09-21T04:30:38;99493.81;;;13.36;52.33
14902;BME280;7542;49.078;9.194;2022-09-21T04:31:42;99493.13;;;13.33;52.12
14902;BME280;7542;49.078;9.194;2022-09-21T04:32:44;99499.09;;;13.36;52.36
14902;BME280;7542;49.078;9.194;2022-09-21T04:33:49;99492.31;;;13.33;52.44
14902;BME280;7542;49.078;9.194;2022-09-21T04:34:51;99487.88;;;13.33;51.85
14902;BME280;7542;49.078;9.194;2022-09-21T04:35:55;99500.03;;;13.34;52.11
14902;BME280;7542;49.078;9.194;2022-09-21T04:36:57;99502.84;;;13.33;52.34
14902;BME280;7542;49.078;9.194;2022-09-21T04:37:59;99503.00;;;13.31;52.57
14902;BME280;7542;49.078;9.194;2022-09-21T04:39:03;99497.91;;;13.30;52.53
14902;BME280;7542;49.078;9.194;2022-09-21T04:40:06;99498.72;;;13.30;52.21
14902;BME280;7542;49.078;9.194;2022-09-21T04:41:08;99493.63;;;13.29;52.13
14902;BME280;7542;49.078;9.194;2022-09-21T04:42:10;99504.16;;;13.29;52.33
14902;BME280;7542;49.078;9.194;2022-09-21T04:43:12;99495.63;;;13.27;52.33
14902;BME280;7542;49.078;9.194;2022-09-21T04:44:14;99495.44;;;13.28;52.13
14902;BME280;7542;49.078;9.194;2022-09-21T04:45:16;99495.78;;;13.25;52.56
14902;BME280;7542;49.078;9.194;2022-09-21T04:46:19;99499.25;;;13.26;52.68
14902;BME280;7542;49.078;9.194;2022-09-21T04:47:21;99500.88;;;13.27;52.14
14902;BME280;7542;49.078;9.194;2022-09-21T04:48:25;99503.69;;;13.25;52.42
14902;BME280;7542;49.078;9.194;2022-09-21T04:49:26;99509.09;;;13.24;52.31
14902;BME280;7542;49.078;9.194;2022-09-21T04:50:28;99505.50;;;13.25;52.53
14902;BME280;7542;49.078;9.194;2022-09-21T04:51:30;99505.50;;;13.25;52.53
14902;BME280;7542;49.078;9.194;2022-09-21T04:52:32;99502.88;;;13.25;52.43
14902;BME280;7542;49.078;9.194;2022-09-21T04:53:36;99507.31;;;13.24;51.84
14902;BME280;7542;49.078;9.194;2022-09-21T04:54:38;99500.38;;;13.23;52.39
14902;BME280;7542;49.078;9.194;2022-09-21T04:55:39;99513.41;;;13.25;52.60
14902;BME280;7542;49.078;9.194;2022-09-21T04:56:41;99510.09;;;13.23;52.20
14902;BME280;7542;49.078;9.194;2022-09-21T04:57:43;99509.44;;;13.21;52.31
14902;BME280;7542;49.078;9.194;2022-09-21T04:58:45;99508.59;;;13.20;52.01
14902;BME280;7542;49.078;9.194;2022-09-21T04:59:46;99508.78;;;13.19;52.61
14902;BME280;7542;49.078;9.194;2022-09-21T05:00:52;99509.59;;;13.19;52.41
14902;BME280;7542;49.078;9.194;2022-09-21T05:01:55;99508.91;;;13.17;52.39
14902;BME280;7542;49.078;9.194;2022-09-21T05:02:57;99514.34;;;13.16;52.32
14902;BME280;7542;49.078;9.194;2022-09-21T05:03:59;99512.69;;;13.15;52.07
14902;BME280;7542;49.078;9.194;2022-09-21T05:05:03;99508.41;;;13.14;52.20
14902;BME280;7542;49.078;9.194;2022-09-21T05:06:05;99513.81;;;13.12;51.83
14902;BME280;7542;49.078;9.194;2022-09-21T05:07:07;99515.63;;;13.12;52.31
14902;BME280;7542;49.078;9.194;2022-09-21T05:08:09;99513.16;;;13.10;52.17
14902;BME280;7542;49.078;9.194;2022-09-21T05:09:10;99521.06;;;13.10;52.36
14902;BME280;7542;49.078;9.194;2022-09-21T05:10:31;99517.78;;;13.08;51.75
14902;BME280;7542;49.078;9.194;2022-09-21T05:11:32;99518.94;;;13.05;52.35
14902;BME280;7542;49.078;9.194;2022-09-21T05:12:34;99523.38;;;13.05;52.01
14902;BME280;7542;49.078;9.194;2022-09-21T05:13:41;99518.13;;;13.05;52.23
14902;BME280;7542;49.078;9.194;2022-09-21T05:14:43;99525.19;;;13.04;52.50
14902;BME280;7542;49.078;9.194;2022-09-21T05:15:45;99519.28;;;13.02;52.52
14902;BME280;7542;49.078;9.194;2022-09-21T05:16:47;99521.72;;;13.04;52.49
14902;BME280;7542;49.078;9.194;2022-09-21T05:17:50;99520.22;;;13.01;52.06
14902;BME280;7542;49.078;9.194;2022-09-21T05:18:52;99523.69;;;13.02;52.44
14902;BME280;7542;49.078;9.194;2022-09-21T05:19:57;99518.59;;;13.00;52.70
14902;BME280;7542;49.078;9.194;2022-09-21T05:21:01;99522.19;;;12.99;52.12
14902;BME280;7542;49.078;9.194;2022-09-21T05:22:04;99523.69;;;13.02;52.56
14902;BME280;7542;49.078;9.194;2022-09-21T05:23:06;99531.44;;;13.03;52.13
14902;BME280;7542;49.078;9.194;2022-09-21T05:24:08;99534.22;;;13.02;52.30
14902;BME280;7542;49.078;9.194;2022-09-21T05:25:10;99523.84;;;13.00;51.94
14902;BME280;7542;49.078;9.194;2022-09-21T05:26:11;99527.16;;;13.02;52.29
14902;BME280;7542;49.078;9.194;2022-09-21T05:27:14;99536.53;;;13.05;52.54
14902;BME280;7542;49.078;9.194;2022-09-21T05:28:19;99532.91;;;13.06;52.23
14902;BME280;7542;49.078;9.194;2022-09-21T05:29:21;99531.44;;;13.03;52.33
14902;BME280;7542;49.078;9.194;2022-09-21T05:30:23;99533.91;;;13.05;52.63
14902;BME280;7542;49.078;9.194;2022-09-21T05:31:48;99530.28;;;13.06;51.86
14902;BME280;7542;49.078;9.194;2022-09-21T05:33:01;99532.09;;;13.05;51.78
14902;BME280;7542;49.078;9.194;2022-09-21T05:34:16;99534.22;;;13.02;51.88
14902;BME280;7542;49.078;9.194;2022-09-21T05:35:35;99542.97;;;13.02;52.22
14902;BME280;7542;49.078;9.194;2022-09-21T05:38:15;99539.00;;;12.98;52.32
14902;BME280;7542;49.078;9.194;2022-09-21T05:39:18;99542.94;;;12.94;51.93
14902;BME280;7542;49.078;9.194;2022-09-21T05:40:21;99538.50;;;12.95;52.40
14902;BME280;7542;49.078;9.194;2022-09-21T05:41:23;99536.84;;;12.94;51.64
14902;BME280;7542;49.078;9.194;2022-09-21T05:42:25;99539.66;;;12.92;51.86
14902;BME280;7542;49.078;9.194;2022-09-21T05:43:27;99536.19;;;12.92;52.66
14902;BME280;7542;49.078;9.194;2022-09-21T05:44:29;99534.38;;;12.92;52.55
14902;BME280;7542;49.078;9.194;2022-09-21T05:45:32;99542.28;;;12.92;52.11
14902;BME280;7542;49.078;9.194;2022-09-21T05:47:03;99542.94;;;12.94;52.05
14902;BME280;7542;49.078;9.194;2022-09-21T05:48:20;99545.88;;;12.91;51.99
14902;BME280;7542;49.078;9.194;2022-09-21T05:52:42;99551.31;;;12.90;52.72
14902;BME280;7542;49.078;9.194;2022-09-21T05:57:12;99553.59;;;12.85;52.60
14902;BME280;7542;49.078;9.194;2022-09-21T05:58:59;99559.03;;;12.83;52.77
14902;BME280;7542;49.078;9.194;2022-09-21T06:00:17;99555.88;;;12.80;52.73
14902;BME280;7542;49.078;9.194;2022-09-21T06:02:00;99550.47;;;12.81;52.22
14902;BME280;7542;49.078;9.194;2022-09-21T06:03:29;99562.78;;;12.81;52.40
14902;BME280;7542;49.078;9.194;2022-09-21T06:04:32;99556.69;;;12.80;52.12
14902;BME280;7542;49.078;9.194;2022-09-21T06:05:33;99562.78;;;12.81;52.76
14902;BME280;7542;49.078;9.194;2022-09-21T06:06:35;99558.22;;;12.83;52.44
14902;BME280;7542;49.078;9.194;2022-09-21T06:07:37;99565.94;;;12.84;53.29
14902;BME280;7542;49.078;9.194;2022-09-21T06:08:39;99559.69;;;12.85;52.31
14902;BME280;7542;49.078;9.194;2022-09-21T06:09:40;99561.16;;;12.88;52.49
14902;BME280;7542;49.078;9.194;2022-09-21T06:10:44;99564.63;;;12.88;52.56
14902;BME280;7542;49.078;9.194;2022-09-21T06:11:46;99557.53;;;12.89;52.62
14902;BME280;7542;49.078;9.194;2022-09-21T06:12:48;99565.28;;;12.90;53.44
14902;BME280;7542;49.078;9.194;2022-09-21T06:13:50;99562.66;;;12.90;53.54
14902;BME280;7542;49.078;9.194;2022-09-21T06:14:51;99562.50;;;12.92;53.55
14902;BME280;7542;49.078;9.194;2022-09-21T06:15:53;99564.97;;;12.93;52.61
14902;BME280;7542;49.078;9.194;2022-09-21T06:16:55;99561.19;;;12.96;53.55
14902;BME280;7542;49.078;9.194;2022-09-21T06:17:57;99568.09;;;12.97;53.11
14902;BME280;7542;49.078;9.194;2022-09-21T06:18:59;99564.66;;;12.96;53.38
14902;BME280;7542;49.078;9.194;2022-09-21T06:20:01;99567.13;;;12.98;53.72
14902;BME280;7542;49.078;9.194;2022-09-21T06:21:04;99565.16;;;13.00;53.64
14902;BME280;7542;49.078;9.194;2022-09-21T06:22:06;99568.44;;;13.02;53.93
14902;BME280;7542;49.078;9.194;2022-09-21T06:23:11;99569.94;;;13.04;54.04
14902;BME280;7542;49.078;9.194;2022-09-21T06:24:13;99566.31;;;13.05;54.21
14902;BME280;7542;49.078;9.194;2022-09-21T06:25:15;99566.97;;;13.07;53.99
14902;BME280;7542;49.078;9.194;2022-09-21T06:26:17;99569.63;;;13.07;53.79
14902;BME280;7542;49.078;9.194;2022-09-21T06:27:19;99566.81;;;13.09;53.97
14902;BME280;7542;49.078;9.194;2022-09-21T06:28:21;99575.38;;;13.11;53.93
14902;BME280;7542;49.078;9.194;2022-09-21T06:29:23;99571.09;;;13.10;54.29
14902;BME280;7542;49.078;9.194;2022-09-21T06:30:25;99575.06;;;13.14;54.21
14902;BME280;7542;49.078;9.194;2022-09-21T06:31:27;99575.88;;;13.15;54.43
14902;BME280;7542;49.078;9.194;2022-09-21T06:32:29;99579.19;;;13.17;54.28